createdAt,value
2023-04-17T00:03:52.800Z,9.00
2023-04-17T00:08:02.439Z,8.90
2023-04-17T00:12:09.482Z,9.00
2023-04-17T00:16:16.159Z,8.90
2023-04-17T00:20:22.891Z,8.80
2023-04-17T00:24:29.582Z,8.90
2023-04-17T00:28:36.282Z,8.90
2023-04-17T00:32:42.964Z,8.80
2023-04-17T00:36:49.607Z,8.90
2023-04-17T00:40:56.644Z,8.80
2023-04-17T00:45:05.403Z,8.80
2023-04-17T00:49:12.462Z,8.70
2023-04-17T00:53:19.358Z,8.60
2023-04-17T00:57:26.791Z,8.70
2023-04-17T01:01:33.486Z,8.70
2023-04-17T01:05:41.288Z,8.70
2023-04-17T01:09:48.020Z,8.70
2023-04-17T01:13:54.765Z,8.70
2023-04-17T01:18:02.423Z,8.80
2023-04-17T01:22:09.158Z,8.70
2023-04-17T01:26:21.145Z,8.80
2023-04-17T01:30:27.960Z,8.80
2023-04-17T01:34:37.308Z,8.70
2023-04-17T01:38:44.760Z,8.50
2023-04-17T01:42:51.540Z,8.50
2023-04-17T01:46:58.251Z,8.50
2023-04-17T01:51:05.676Z,8.60
2023-04-17T01:55:12.531Z,8.40
2023-04-17T01:59:19.216Z,8.40
2023-04-17T02:03:26.051Z,8.40
2023-04-17T02:07:32.848Z,8.30
2023-04-17T02:11:39.709Z,8.20
2023-04-17T02:15:46.419Z,8.20
2023-04-17T02:19:53.142Z,8.30
2023-04-17T02:24:00.266Z,8.30
2023-04-17T02:28:06.968Z,8.40
2023-04-17T02:32:16.340Z,8.40
2023-04-17T02:36:24.157Z,8.30
2023-04-17T02:40:30.865Z,8.40
2023-04-17T02:44:37.647Z,8.30
2023-04-17T02:48:44.639Z,8.20
2023-04-17T02:52:51.316Z,8.20
2023-04-17T02:56:58.601Z,8.30
2023-04-17T03:01:05.517Z,8.30
2023-04-17T03:05:14.988Z,8.40
2023-04-17T03:09:24.857Z,8.30
2023-04-17T03:13:35.489Z,8.30
2023-04-17T03:17:42.211Z,8.20
2023-04-17T03:21:48.963Z,8.20
2023-04-17T03:25:55.623Z,8.20
2023-04-17T03:30:02.286Z,8.20
2023-04-17T03:34:08.991Z,8.30
2023-04-17T03:38:17.016Z,8.20
2023-04-17T03:42:25.016Z,8.20
2023-04-17T03:46:31.821Z,8.40
2023-04-17T03:50:38.568Z,8.30
2023-04-17T03:54:45.734Z,8.30
2023-04-17T03:58:52.408Z,8.30
2023-04-17T04:02:59.356Z,8.30
2023-04-17T04:07:06.478Z,8.30
2023-04-17T04:11:13.765Z,8.20
2023-04-17T04:15:20.516Z,8.30
2023-04-17T04:19:27.193Z,8.10
2023-04-17T04:23:34.558Z,8.20
2023-04-17T04:27:46.615Z,8.20
2023-04-17T04:31:53.526Z,8.20
2023-04-17T04:36:01.402Z,8.10
2023-04-17T04:40:12.116Z,8.10
2023-04-17T04:44:19.963Z,8.20
2023-04-17T04:48:26.772Z,8.30
2023-04-17T04:52:33.521Z,8.30
2023-04-17T04:56:48.779Z,8.30
2023-04-17T05:00:56.286Z,8.30
2023-04-17T05:05:04.418Z,8.20
2023-04-17T05:09:11.567Z,8.40
2023-04-17T05:13:18.473Z,8.30
2023-04-17T05:17:25.236Z,8.40
2023-04-17T05:21:32.201Z,8.30
2023-04-17T05:25:39.188Z,8.40
2023-04-17T05:29:48.388Z,8.40
2023-04-17T05:33:55.233Z,8.60
2023-04-17T05:38:02.159Z,8.60
2023-04-17T05:42:08.810Z,8.50
2023-04-17T05:46:15.701Z,8.50
2023-04-17T05:50:22.553Z,7.80
2023-04-17T05:54:30.331Z,8.50
2023-04-17T05:58:37.236Z,8.60
2023-04-17T06:02:44.230Z,8.70
2023-04-17T06:06:51.018Z,8.70
2023-04-17T06:10:57.961Z,8.70
2023-04-17T06:15:05.681Z,8.80
2023-04-17T06:19:13.624Z,8.80
2023-04-17T06:23:21.558Z,8.80
2023-04-17T06:27:28.237Z,8.90
2023-04-17T06:31:35.077Z,8.90
2023-04-17T06:35:42.044Z,8.90
2023-04-17T06:39:49.119Z,8.90
2023-04-17T06:43:55.982Z,9.20
2023-04-17T06:48:02.678Z,9.10
2023-04-17T06:52:09.776Z,9.20
2023-04-17T06:56:16.831Z,9.30
2023-04-17T07:00:23.664Z,9.20
2023-04-17T07:04:31.690Z,9.30
2023-04-17T07:08:38.793Z,10.70
2023-04-17T07:12:46.071Z,9.30
2023-04-17T07:16:52.844Z,9.30
2023-04-17T07:20:59.752Z,9.40
2023-04-17T07:25:07.414Z,9.30
2023-04-17T07:29:14.336Z,9.30
2023-04-17T07:33:21.958Z,9.50
2023-04-17T07:37:29.180Z,9.70
2023-04-17T07:41:36.186Z,11.20
2023-04-17T07:45:42.890Z,9.90
2023-04-17T07:49:50.274Z,10.20
2023-04-17T07:53:57.093Z,10.20
2023-04-17T07:58:03.917Z,10.60
2023-04-17T08:02:11.000Z,10.70
2023-04-17T08:06:18.113Z,10.90
2023-04-17T08:10:24.869Z,10.90
2023-04-17T08:14:31.661Z,11.00
2023-04-17T08:18:39.354Z,11.00
2023-04-17T08:22:46.617Z,12.60
2023-04-17T08:26:53.289Z,11.00
2023-04-17T08:31:00.012Z,11.10
2023-04-17T08:35:08.432Z,11.00
2023-04-17T08:39:16.540Z,11.30
2023-04-17T08:43:26.059Z,11.60
2023-04-17T08:47:36.415Z,11.70
2023-04-17T08:51:43.138Z,11.60
2023-04-17T08:55:49.906Z,11.60
2023-04-17T08:59:56.613Z,11.60
2023-04-17T09:04:03.525Z,11.70
2023-04-17T09:08:20.539Z,11.80
2023-04-17T09:12:27.349Z,12.00
2023-04-17T09:16:35.302Z,12.20
2023-04-17T09:20:50.130Z,12.60
2023-04-17T09:24:57.830Z,12.70
2023-04-17T09:29:11.402Z,14.40
2023-04-17T09:33:18.671Z,13.40
2023-04-17T09:37:27.138Z,14.10
2023-04-17T09:41:39.421Z,14.00
2023-04-17T09:45:46.462Z,14.10
2023-04-17T09:49:53.294Z,14.00
2023-04-17T09:54:05.369Z,13.80
2023-04-17T09:58:12.116Z,13.80
2023-04-17T10:02:20.659Z,13.80
2023-04-17T10:06:28.252Z,14.20
2023-04-17T10:10:36.291Z,14.10
2023-04-17T10:14:49.683Z,14.20
2023-04-17T10:19:24.102Z,14.50
2023-04-17T10:23:34.905Z,15.10
2023-04-17T10:27:41.701Z,15.30
2023-04-17T10:32:07.367Z,15.10
2023-04-17T10:36:39.882Z,15.20
2023-04-17T10:40:46.681Z,15.30
2023-04-17T10:44:58.923Z,15.50
2023-04-17T10:49:05.630Z,15.60
2023-04-17T10:53:39.910Z,16.40
2023-04-17T10:58:11.904Z,15.90
2023-04-17T11:02:33.890Z,16.20
2023-04-17T11:06:42.060Z,16.00
2023-04-17T11:10:53.675Z,15.70
2023-04-17T11:15:04.008Z,15.50
2023-04-17T11:19:15.600Z,15.70
2023-04-17T11:23:22.316Z,15.70
2023-04-17T11:27:29.015Z,15.90
2023-04-17T11:31:36.454Z,15.90
2023-04-17T11:35:43.666Z,16.00
2023-04-17T11:39:50.599Z,16.20
2023-04-17T11:43:57.392Z,16.30
2023-04-17T11:48:04.528Z,16.70
2023-04-17T11:52:11.360Z,16.60
2023-04-17T11:56:19.543Z,16.80
2023-04-17T12:00:29.734Z,17.30
2023-04-17T12:04:37.834Z,16.50
2023-04-17T12:08:53.483Z,17.30
2023-04-17T12:13:00.181Z,17.30
2023-04-17T12:17:06.881Z,17.20
2023-04-17T12:21:14.420Z,16.70
2023-04-17T12:25:21.493Z,17.20
2023-04-17T12:29:43.193Z,17.70
2023-04-17T12:33:52.486Z,17.60
2023-04-17T12:37:59.716Z,17.60
2023-04-17T12:42:06.388Z,17.70
2023-04-17T12:46:13.126Z,17.60
2023-04-17T12:50:19.866Z,17.70
2023-04-17T12:54:26.557Z,18.40
2023-04-17T12:58:33.255Z,17.80
2023-04-17T13:02:40.067Z,17.30
2023-04-17T13:06:46.965Z,17.80
2023-04-17T13:10:53.740Z,18.00
2023-04-17T13:15:00.384Z,17.90
2023-04-17T13:19:07.073Z,17.60
2023-04-17T13:23:14.436Z,17.90
2023-04-17T13:27:21.147Z,18.40
2023-04-17T13:31:28.328Z,18.80
2023-04-17T13:35:35.142Z,19.00
2023-04-17T13:39:42.172Z,18.10
2023-04-17T13:43:48.848Z,17.40
2023-04-17T13:47:55.734Z,17.40
2023-04-17T13:52:03.394Z,17.40
2023-04-17T13:56:10.171Z,17.60
2023-04-17T14:00:18.333Z,17.90
2023-04-17T14:04:25.395Z,17.60
2023-04-17T14:08:32.206Z,18.50
2023-04-17T14:12:39.006Z,18.40
2023-04-17T14:16:48.274Z,17.80
2023-04-17T14:20:55.432Z,17.30
2023-04-17T14:25:02.323Z,17.50
2023-04-17T14:29:10.756Z,17.90
2023-04-17T14:33:17.882Z,18.10
2023-04-17T14:37:25.681Z,18.00
2023-04-17T14:41:34.200Z,17.60
2023-04-17T14:45:41.368Z,17.50
2023-04-17T14:49:48.076Z,17.10
2023-04-17T14:53:54.748Z,16.80
2023-04-17T14:58:01.422Z,17.10
2023-04-17T15:02:08.169Z,17.50
2023-04-17T15:06:15.629Z,17.90
2023-04-17T15:10:22.390Z,17.90
2023-04-17T15:14:29.875Z,18.10
2023-04-17T15:18:36.721Z,17.80
2023-04-17T15:22:43.904Z,17.00
2023-04-17T15:26:51.231Z,15.60
2023-04-17T15:30:57.965Z,14.50
2023-04-17T15:35:05.761Z,13.80
2023-04-17T15:39:12.633Z,13.40
2023-04-17T15:43:19.985Z,13.20
2023-04-17T15:47:26.757Z,13.00
2023-04-17T15:51:33.410Z,13.10
2023-04-17T15:55:41.073Z,13.60
2023-04-17T15:59:48.606Z,14.10
2023-04-17T16:03:55.586Z,14.70
2023-04-17T16:08:02.511Z,15.10
2023-04-17T16:12:10.278Z,15.50
2023-04-17T16:16:17.033Z,15.80
2023-04-17T16:20:23.798Z,16.10
2023-04-17T16:24:30.464Z,16.10
2023-04-17T16:28:37.154Z,16.00
2023-04-17T16:32:45.442Z,15.70
2023-04-17T16:36:52.216Z,15.20
2023-04-17T16:41:00.736Z,14.80
2023-04-17T16:45:07.742Z,14.60
2023-04-17T16:49:14.691Z,14.70
2023-04-17T16:53:21.673Z,14.80
2023-04-17T16:57:28.414Z,14.90
2023-04-17T17:01:35.364Z,15.00
2023-04-17T17:05:42.142Z,15.10
2023-04-17T17:09:48.857Z,15.00
2023-04-17T17:13:56.295Z,15.00
2023-04-17T17:18:03.108Z,14.80
2023-04-17T17:22:09.857Z,14.70
2023-04-17T17:26:17.348Z,14.70
2023-04-17T17:30:24.088Z,14.70
2023-04-17T17:34:32.535Z,14.60
2023-04-17T17:38:40.668Z,14.50
2023-04-17T17:42:47.752Z,14.60
2023-04-17T17:46:54.661Z,14.50
2023-04-17T17:51:01.321Z,14.40
2023-04-17T17:55:08.404Z,14.30
2023-04-17T17:59:15.264Z,14.20
2023-04-17T18:03:22.237Z,14.20
2023-04-17T18:07:29.187Z,14.20
2023-04-17T18:11:36.905Z,14.40
2023-04-17T18:15:43.764Z,13.80
2023-04-17T18:19:50.481Z,13.80
2023-04-17T18:23:57.891Z,13.80
2023-04-17T18:28:05.129Z,13.70
2023-04-17T18:32:11.850Z,13.60
2023-04-17T18:36:18.633Z,13.50
2023-04-17T18:40:25.306Z,13.40
2023-04-17T18:44:31.990Z,13.30
2023-04-17T18:48:38.857Z,13.30
2023-04-17T18:52:50.288Z,13.10
2023-04-17T18:56:58.084Z,13.10
2023-04-17T19:01:06.398Z,13.10
2023-04-17T19:05:13.359Z,12.90
2023-04-17T19:09:20.519Z,12.70
2023-04-17T19:13:27.243Z,12.70
2023-04-17T19:17:34.327Z,12.70
2023-04-17T19:21:41.002Z,12.50
2023-04-17T19:25:54.166Z,12.40
2023-04-17T19:30:00.851Z,12.70
2023-04-17T19:34:08.478Z,12.30
2023-04-17T19:38:17.112Z,12.90
2023-04-17T19:42:24.133Z,12.00
2023-04-17T19:46:30.905Z,11.90
2023-04-17T19:50:37.577Z,11.80
2023-04-17T19:54:45.484Z,11.80
2023-04-17T19:58:52.212Z,11.60
2023-04-17T20:02:59.036Z,11.50
2023-04-17T20:07:06.078Z,11.50
2023-04-17T20:11:13.412Z,11.50
2023-04-17T20:15:21.949Z,11.40
2023-04-17T20:19:28.716Z,11.30
2023-04-17T20:23:35.451Z,11.30
2023-04-17T20:27:42.136Z,11.20
2023-04-17T20:31:49.152Z,11.10
2023-04-17T20:35:55.830Z,11.20
2023-04-17T20:40:02.669Z,11.00
2023-04-17T20:44:09.516Z,10.90
2023-04-17T20:48:16.611Z,10.80
2023-04-17T20:52:23.352Z,10.90
2023-04-17T20:56:29.981Z,10.80
2023-04-17T21:00:42.038Z,10.70
2023-04-17T21:04:54.376Z,10.60
2023-04-17T21:09:01.096Z,10.60
2023-04-17T21:13:07.767Z,10.50
2023-04-17T21:17:14.650Z,10.40
2023-04-17T21:21:21.407Z,10.40
2023-04-17T21:25:28.163Z,10.30
2023-04-17T21:29:34.795Z,10.20
2023-04-17T21:33:41.515Z,10.10
2023-04-17T21:37:48.205Z,10.10
2023-04-17T21:41:54.926Z,10.00
2023-04-17T21:46:01.702Z,9.80
2023-04-17T21:50:09.638Z,9.90
2023-04-17T21:54:16.758Z,9.70
2023-04-17T21:58:23.468Z,9.70
2023-04-17T22:02:30.198Z,9.60
2023-04-17T22:06:37.117Z,9.60
2023-04-17T22:10:43.772Z,9.60
2023-04-17T22:14:50.555Z,9.60
2023-04-17T22:18:57.308Z,9.50
2023-04-17T22:23:04.181Z,9.50
2023-04-17T22:27:10.852Z,9.40
2023-04-17T22:31:17.569Z,9.30
2023-04-17T22:35:24.445Z,9.30
2023-04-17T22:39:31.569Z,9.20
2023-04-17T22:43:38.225Z,9.20
2023-04-17T22:47:44.949Z,9.20
2023-04-17T22:51:51.598Z,9.20
2023-04-17T22:56:02.295Z,9.00
2023-04-17T23:00:10.225Z,9.10
2023-04-17T23:04:17.022Z,8.90
2023-04-17T23:08:24.312Z,8.80
2023-04-17T23:12:31.832Z,8.80
2023-04-17T23:16:38.473Z,8.80
2023-04-17T23:20:46.739Z,8.60
2023-04-17T23:24:53.393Z,8.60
2023-04-17T23:29:00.147Z,8.60
2023-04-17T23:33:07.271Z,8.50
2023-04-17T23:37:13.982Z,8.30
2023-04-17T23:41:20.994Z,8.10
2023-04-17T23:45:27.658Z,8.10
2023-04-17T23:49:35.808Z,8.00
2023-04-17T23:53:42.529Z,7.90
2023-04-17T23:57:49.181Z,7.80
